sensor_id;sensor_type;location;lat;lon;timestamp;temperature;humidity
37322;DHT22;23697;48.684;9.032;2023-07-28T00:00:30;15.80;86.60
37322;DHT22;23697;48.684;9.032;2023-07-28T00:02:57;15.80;86.60
37322;DHT22;23697;48.684;9.032;2023-07-28T00:05:23;15.80;86.60
37322;DHT22;23697;48.684;9.032;2023-07-28T00:07:51;15.80;86.60
37322;DHT22;23697;48.684;9.032;2023-07-28T00:10:18;15.80;86.70
37322;DHT22;23697;48.684;9.032;2023-07-28T00:12:45;15.70;86.60
37322;DHT22;23697;48.684;9.032;2023-07-28T00:15:11;15.70;86.70
37322;DHT22;23697;48.684;9.032;2023-07-28T00:17:38;15.70;86.70
37322;DHT22;23697;48.684;9.032;2023-07-28T00:20:05;15.70;86.70
37322;DHT22;23697;48.684;9.032;2023-07-28T00:22:33;15.60;86.80
37322;DHT22;23697;48.684;9.032;2023-07-28T00:25:01;15.60;86.70
37322;DHT22;23697;48.684;9.032;2023-07-28T00:27:28;15.60;86.80
37322;DHT22;23697;48.684;9.032;2023-07-28T00:29:54;15.60;86.80
37322;DHT22;23697;48.684;9.032;2023-07-28T00:32:21;15.50;86.80
37322;DHT22;23697;48.684;9.032;2023-07-28T00:34:48;15.50;86.80
37322;DHT22;23697;48.684;9.032;2023-07-28T00:37:14;15.50;87.00
37322;DHT22;23697;48.684;9.032;2023-07-28T00:39:41;15.40;87.10
37322;DHT22;23697;48.684;9.032;2023-07-28T00:42:09;15.40;87.20
37322;DHT22;23697;48.684;9.032;2023-07-28T00:44:36;15.40;87.20
37322;DHT22;23697;48.684;9.032;2023-07-28T00:47:02;15.40;87.30
37322;DHT22;23697;48.684;9.032;2023-07-28T00:49:29;15.30;87.40
37322;DHT22;23697;48.684;9.032;2023-07-28T00:51:56;15.30;87.40
37322;DHT22;23697;48.684;9.032;2023-07-28T00:54:23;15.20;87.40
37322;DHT22;23697;48.684;9.032;2023-07-28T00:56:49;15.20;87.50
37322;DHT22;23697;48.684;9.032;2023-07-28T00:59:18;15.10;87.50
37322;DHT22;23697;48.684;9.032;2023-07-28T01:01:44;15.10;87.60
37322;DHT22;23697;48.684;9.032;2023-07-28T01:04:11;15.10;87.60
37322;DHT22;23697;48.684;9.032;2023-07-28T01:06:41;15.10;87.60
37322;DHT22;23697;48.684;9.032;2023-07-28T01:09:11;15.00;87.80
37322;DHT22;23697;48.684;9.032;2023-07-28T01:11:39;15.00;87.80
37322;DHT22;23697;48.684;9.032;2023-07-28T01:14:19;14.90;87.80
37322;DHT22;23697;48.684;9.032;2023-07-28T01:16:46;15.00;87.90
37322;DHT22;23697;48.684;9.032;2023-07-28T01:19:13;14.90;87.90
37322;DHT22;23697;48.684;9.032;2023-07-28T01:21:43;15.00;88.00
37322;DHT22;23697;48.684;9.032;2023-07-28T01:24:14;14.90;88.10
37322;DHT22;23697;48.684;9.032;2023-07-28T01:26:43;14.90;88.10
37322;DHT22;23697;48.684;9.032;2023-07-28T01:29:11;14.90;88.10
37322;DHT22;23697;48.684;9.032;2023-07-28T01:31:40;14.90;88.20
37322;DHT22;23697;48.684;9.032;2023-07-28T01:34:06;14.90;88.30
37322;DHT22;23697;48.684;9.032;2023-07-28T01:36:33;14.90;88.30
37322;DHT22;23697;48.684;9.032;2023-07-28T01:39:00;14.90;88.20
37322;DHT22;23697;48.684;9.032;2023-07-28T01:41:26;14.80;88.20
37322;DHT22;23697;48.684;9.032;2023-07-28T01:43:54;14.80;88.20
37322;DHT22;23697;48.684;9.032;2023-07-28T01:46:21;14.80;88.30
37322;DHT22;23697;48.684;9.032;2023-07-28T01:48:48;14.90;88.40
37322;DHT22;23697;48.684;9.032;2023-07-28T01:51:14;14.90;88.50
37322;DHT22;23697;48.684;9.032;2023-07-28T01:53:41;14.90;88.50
37322;DHT22;23697;48.684;9.032;2023-07-28T01:56:08;14.90;88.50
37322;DHT22;23697;48.684;9.032;2023-07-28T01:58:35;14.90;88.50
37322;DHT22;23697;48.684;9.032;2023-07-28T02:01:03;14.90;88.50
37322;DHT22;23697;48.684;9.032;2023-07-28T02:03:30;14.90;88.50
37322;DHT22;23697;48.684;9.032;2023-07-28T02:05:56;14.90;88.50
37322;DHT22;23697;48.684;9.032;2023-07-28T02:08:23;14.90;88.50
37322;DHT22;23697;48.684;9.032;2023-07-28T02:10:50;14.80;88.40
37322;DHT22;23697;48.684;9.032;2023-07-28T02:13:16;14.70;88.40
37322;DHT22;23697;48.684;9.032;2023-07-28T02:15:43;14.70;88.40
37322;DHT22;23697;48.684;9.032;2023-07-28T02:18:11;14.70;88.40
37322;DHT22;23697;48.684;9.032;2023-07-28T02:20:37;14.60;88.40
37322;DHT22;23697;48.684;9.032;2023-07-28T02:23:04;14.60;88.40
37322;DHT22;23697;48.684;9.032;2023-07-28T02:25:31;14.70;88.40
37322;DHT22;23697;48.684;9.032;2023-07-28T02:27:57;14.60;88.50
37322;DHT22;23697;48.684;9.032;2023-07-28T02:30:24;14.60;88.60
37322;DHT22;23697;48.684;9.032;2023-07-28T02:32:51;14.70;88.70
37322;DHT22;23697;48.684;9.032;2023-07-28T02:35:19;14.70;88.70
37322;DHT22;23697;48.684;9.032;2023-07-28T02:37:45;14.70;88.80
37322;DHT22;23697;48.684;9.032;2023-07-28T02:40:12;14.70;88.90
37322;DHT22;23697;48.684;9.032;2023-07-28T02:42:39;14.70;88.90
37322;DHT22;23697;48.684;9.032;2023-07-28T02:45:06;14.80;88.90
37322;DHT22;23697;48.684;9.032;2023-07-28T02:47:33;14.80;88.90
37322;DHT22;23697;48.684;9.032;2023-07-28T02:49:59;14.90;89.00
37322;DHT22;23697;48.684;9.032;2023-07-28T02:52:27;14.90;89.00
37322;DHT22;23697;48.684;9.032;2023-07-28T02:54:55;15.00;88.90
37322;DHT22;23697;48.684;9.032;2023-07-28T02:57:21;15.00;88.90
37322;DHT22;23697;48.684;9.032;2023-07-28T02:59:48;15.10;88.90
37322;DHT22;23697;48.684;9.032;2023-07-28T03:02:15;15.10;88.90
37322;DHT22;23697;48.684;9.032;2023-07-28T03:04:41;15.10;88.90
37322;DHT22;23697;48.684;9.032;2023-07-28T03:07:08;15.10;88.90
37322;DHT22;23697;48.684;9.032;2023-07-28T03:09:38;15.20;88.80
37322;DHT22;23697;48.684;9.032;2023-07-28T03:12:05;15.30;88.80
37322;DHT22;23697;48.684;9.032;2023-07-28T03:14:31;15.30;88.80
37322;DHT22;23697;48.684;9.032;2023-07-28T03:16:58;15.40;88.70
37322;DHT22;23697;48.684;9.032;2023-07-28T03:19:25;15.40;88.70
37322;DHT22;23697;48.684;9.032;2023-07-28T03:21:51;15.40;88.70
37322;DHT22;23697;48.684;9.032;2023-07-28T03:24:18;15.40;88.60
37322;DHT22;23697;48.684;9.032;2023-07-28T03:26:46;15.50;88.60
37322;DHT22;23697;48.684;9.032;2023-07-28T03:29:13;15.50;88.70
37322;DHT22;23697;48.684;9.032;2023-07-28T03:31:40;15.50;88.70
37322;DHT22;23697;48.684;9.032;2023-07-28T03:34:06;15.50;88.70
37322;DHT22;23697;48.684;9.032;2023-07-28T03:36:33;15.50;88.60
37322;DHT22;23697;48.684;9.032;2023-07-28T03:38:59;15.50;88.60
37322;DHT22;23697;48.684;9.032;2023-07-28T03:41:26;15.50;88.60
37322;DHT22;23697;48.684;9.032;2023-07-28T03:43:54;15.60;88.50
37322;DHT22;23697;48.684;9.032;2023-07-28T03:46:21;15.70;88.30
37322;DHT22;23697;48.684;9.032;2023-07-28T03:48:47;15.70;88.20
37322;DHT22;23697;48.684;9.032;2023-07-28T03:51:14;15.80;88.10
37322;DHT22;23697;48.684;9.032;2023-07-28T03:53:41;15.90;88.00
37322;DHT22;23697;48.684;9.032;2023-07-28T03:56:07;15.90;87.90
37322;DHT22;23697;48.684;9.032;2023-07-28T03:58:34;15.90;87.90
37322;DHT22;23697;48.684;9.032;2023-07-28T04:01:02;15.80;88.00
37322;DHT22;23697;48.684;9.032;2023-07-28T04:03:29;15.90;88.00
37322;DHT22;23697;48.684;9.032;2023-07-28T04:05:55;16.00;87.90
37322;DHT22;23697;48.684;9.032;2023-07-28T04:08:22;15.90;87.90
37322;DHT22;23697;48.684;9.032;2023-07-28T04:10:48;16.00;87.70
37322;DHT22;23697;48.684;9.032;2023-07-28T04:13:15;16.00;87.70
37322;DHT22;23697;48.684;9.032;2023-07-28T04:15:42;16.10;86.90
37322;DHT22;23697;48.684;9.032;2023-07-28T04:18:10;16.10;86.90
37322;DHT22;23697;48.684;9.032;2023-07-28T04:20:36;16.00;87.00
37322;DHT22;23697;48.684;9.032;2023-07-28T04:23:03;16.00;86.90
37322;DHT22;23697;48.684;9.032;2023-07-28T04:25:30;16.10;87.00
37322;DHT22;23697;48.684;9.032;2023-07-28T04:27:56;16.00;87.10
37322;DHT22;23697;48.684;9.032;2023-07-28T04:30:23;16.00;87.20
37322;DHT22;23697;48.684;9.032;2023-07-28T04:32:49;16.10;87.30
37322;DHT22;23697;48.684;9.032;2023-07-28T04:35:17;16.00;87.40
37322;DHT22;23697;48.684;9.032;2023-07-28T04:37:44;16.00;87.50
37322;DHT22;23697;48.684;9.032;2023-07-28T04:40:11;16.10;87.50
37322;DHT22;23697;48.684;9.032;2023-07-28T04:42:38;16.10;87.50
37322;DHT22;23697;48.684;9.032;2023-07-28T04:45:05;16.10;87.60
37322;DHT22;23697;48.684;9.032;2023-07-28T04:47:32;16.10;87.70
37322;DHT22;23697;48.684;9.032;2023-07-28T04:49:58;16.00;87.70
37322;DHT22;23697;48.684;9.032;2023-07-28T04:52:27;16.10;87.70
37322;DHT22;23697;48.684;9.032;2023-07-28T04:54:53;16.10;87.70
37322;DHT22;23697;48.684;9.032;2023-07-28T04:57:20;16.10;87.90
37322;DHT22;23697;48.684;9.032;2023-07-28T04:59:46;16.10;87.90
37322;DHT22;23697;48.684;9.032;2023-07-28T05:02:13;16.10;88.00
37322;DHT22;23697;48.684;9.032;2023-07-28T05:04:40;16.10;88.10
37322;DHT22;23697;48.684;9.032;2023-07-28T05:07:06;16.10;88.20
37322;DHT22;23697;48.684;9.032;2023-07-28T05:09:34;16.10;88.30
37322;DHT22;23697;48.684;9.032;2023-07-28T05:12:01;16.10;88.30
37322;DHT22;23697;48.684;9.032;2023-07-28T05:14:28;16.10;88.50
37322;DHT22;23697;48.684;9.032;2023-07-28T05:16:54;16.10;88.60
37322;DHT22;23697;48.684;9.032;2023-07-28T05:19:21;16.00;88.70
37322;DHT22;23697;48.684;9.032;2023-07-28T05:21:48;16.10;88.90
37322;DHT22;23697;48.684;9.032;2023-07-28T05:24:16;16.10;89.10
37322;DHT22;23697;48.684;9.032;2023-07-28T05:26:44;16.10;89.10
37322;DHT22;23697;48.684;9.032;2023-07-28T05:29:11;16.10;89.20
37322;DHT22;23697;48.684;9.032;2023-07-28T05:31:37;16.10;89.20
37322;DHT22;23697;48.684;9.032;2023-07-28T05:34:04;16.10;89.30
37322;DHT22;23697;48.684;9.032;2023-07-28T05:36:31;16.10;89.30
37322;DHT22;23697;48.684;9.032;2023-07-28T05:38:57;16.10;89.40
37322;DHT22;23697;48.684;9.032;2023-07-28T05:41:24;16.20;89.40
37322;DHT22;23697;48.684;9.032;2023-07-28T05:43:53;16.20;89.50
37322;DHT22;23697;48.684;9.032;2023-07-28T05:46:19;16.20;89.50
37322;DHT22;23697;48.684;9.032;2023-07-28T05:48:46;16.20;89.50
37322;DHT22;23697;48.684;9.032;2023-07-28T05:51:13;16.30;89.60
37322;DHT22;23697;48.684;9.032;2023-07-28T05:53:41;16.40;89.60
37322;DHT22;23697;48.684;9.032;2023-07-28T05:56:07;16.40;89.60
37322;DHT22;23697;48.684;9.032;2023-07-28T05:58:36;16.40;89.60
37322;DHT22;23697;48.684;9.032;2023-07-28T06:01:04;16.40;89.60
37322;DHT22;23697;48.684;9.032;2023-07-28T06:03:31;16.40;89.70
37322;DHT22;23697;48.684;9.032;2023-07-28T06:05:58;16.50;89.70
37322;DHT22;23697;48.684;9.032;2023-07-28T06:08:26;16.50;89.70
37322;DHT22;23697;48.684;9.032;2023-07-28T06:10:52;16.50;89.70
37322;DHT22;23697;48.684;9.032;2023-07-28T06:13:19;16.50;89.70
37322;DHT22;23697;48.684;9.032;2023-07-28T06:15:46;16.60;89.70
37322;DHT22;23697;48.684;9.032;2023-07-28T06:18:14;16.60;89.70
37322;DHT22;23697;48.684;9.032;2023-07-28T06:20:42;16.60;89.70
37322;DHT22;23697;48.684;9.032;2023-07-28T06:23:08;16.60;89.70
37322;DHT22;23697;48.684;9.032;2023-07-28T06:25:35;16.70;89.70
37322;DHT22;23697;48.684;9.032;2023-07-28T06:28:03;16.70;89.80
37322;DHT22;23697;48.684;9.032;2023-07-28T06:30:30;16.80;89.80
37322;DHT22;23697;48.684;9.032;2023-07-28T06:32:57;16.70;89.70
37322;DHT22;23697;48.684;9.032;2023-07-28T06:35:25;16.80;89.80
37322;DHT22;23697;48.684;9.032;2023-07-28T06:37:52;16.80;89.80
37322;DHT22;23697;48.684;9.032;2023-07-28T06:40:19;16.80;89.80
37322;DHT22;23697;48.684;9.032;2023-07-28T06:42:46;16.80;89.80
37322;DHT22;23697;48.684;9.032;2023-07-28T06:45:12;16.70;89.80
37322;DHT22;23697;48.684;9.032;2023-07-28T06:47:39;16.80;89.80
37322;DHT22;23697;48.684;9.032;2023-07-28T06:50:06;16.80;89.80
37322;DHT22;23697;48.684;9.032;2023-07-28T06:52:34;16.80;89.80
37322;DHT22;23697;48.684;9.032;2023-07-28T06:55:01;16.80;89.80
37322;DHT22;23697;48.684;9.032;2023-07-28T06:57:29;16.80;89.80
37322;DHT22;23697;48.684;9.032;2023-07-28T06:59:56;17.00;89.80
37322;DHT22;23697;48.684;9.032;2023-07-28T07:02:22;17.10;89.80
37322;DHT22;23697;48.684;9.032;2023-07-28T07:04:49;17.10;89.80
37322;DHT22;23697;48.684;9.032;2023-07-28T07:07:16;17.20;89.80
37322;DHT22;23697;48.684;9.032;2023-07-28T07:09:44;17.40;89.80
37322;DHT22;23697;48.684;9.032;2023-07-28T07:12:10;17.40;89.30
37322;DHT22;23697;48.684;9.032;2023-07-28T07:14:37;17.50;89.20
37322;DHT22;23697;48.684;9.032;2023-07-28T07:17:04;17.50;89.20
37322;DHT22;23697;48.684;9.032;2023-07-28T07:19:31;17.60;89.20
37322;DHT22;23697;48.684;9.032;2023-07-28T07:21:58;17.60;89.10
37322;DHT22;23697;48.684;9.032;2023-07-28T07:24:26;17.60;89.10
37322;DHT22;23697;48.684;9.032;2023-07-28T07:26:54;17.60;88.90
37322;DHT22;23697;48.684;9.032;2023-07-28T07:29:21;17.70;88.60
37322;DHT22;23697;48.684;9.032;2023-07-28T07:31:50;17.80;88.70
37322;DHT22;23697;48.684;9.032;2023-07-28T07:34:20;17.90;88.50
37322;DHT22;23697;48.684;9.032;2023-07-28T07:36:47;18.00;88.20
37322;DHT22;23697;48.684;9.032;2023-07-28T07:39:13;18.10;88.00
37322;DHT22;23697;48.684;9.032;2023-07-28T07:41:40;18.00;87.50
37322;DHT22;23697;48.684;9.032;2023-07-28T07:44:08;18.10;87.70
37322;DHT22;23697;48.684;9.032;2023-07-28T07:46:35;18.10;87.90
37322;DHT22;23697;48.684;9.032;2023-07-28T07:49:02;18.10;88.00
37322;DHT22;23697;48.684;9.032;2023-07-28T07:51:31;18.20;88.10
37322;DHT22;23697;48.684;9.032;2023-07-28T07:53:59;18.30;88.10
37322;DHT22;23697;48.684;9.032;2023-07-28T07:56:26;18.30;88.00
37322;DHT22;23697;48.684;9.032;2023-07-28T07:58:53;18.30;88.10
37322;DHT22;23697;48.684;9.032;2023-07-28T08:01:21;18.30;88.20
37322;DHT22;23697;48.684;9.032;2023-07-28T08:03:48;18.40;88.20
37322;DHT22;23697;48.684;9.032;2023-07-28T08:06:14;18.50;88.20
37322;DHT22;23697;48.684;9.032;2023-07-28T08:08:43;18.60;88.00
37322;DHT22;23697;48.684;9.032;2023-07-28T08:11:10;18.70;87.70
37322;DHT22;23697;48.684;9.032;2023-07-28T08:13:37;18.90;87.60
37322;DHT22;23697;48.684;9.032;2023-07-28T08:16:07;19.10;87.20
37322;DHT22;23697;48.684;9.032;2023-07-28T08:18:35;19.30;86.40
37322;DHT22;23697;48.684;9.032;2023-07-28T08:21:02;19.40;85.60
37322;DHT22;23697;48.684;9.032;2023-07-28T08:23:29;19.60;85.10
37322;DHT22;23697;48.684;9.032;2023-07-28T08:25:56;19.60;83.70
37322;DHT22;23697;48.684;9.032;2023-07-28T08:28:26;19.70;83.70
37322;DHT22;23697;48.684;9.032;2023-07-28T08:30:54;19.90;84.20
37322;DHT22;23697;48.684;9.032;2023-07-28T08:33:21;20.10;83.10
37322;DHT22;23697;48.684;9.032;2023-07-28T08:35:49;20.10;83.40
37322;DHT22;23697;48.684;9.032;2023-07-28T08:38:16;20.30;83.60
37322;DHT22;23697;48.684;9.032;2023-07-28T08:40:43;20.30;82.50
37322;DHT22;23697;48.684;9.032;2023-07-28T08:43:10;20.30;81.20
37322;DHT22;23697;48.684;9.032;2023-07-28T08:45:37;20.30;80.00
37322;DHT22;23697;48.684;9.032;2023-07-28T08:48:04;20.60;82.00
37322;DHT22;23697;48.684;9.032;2023-07-28T08:50:33;20.80;81.40
37322;DHT22;23697;48.684;9.032;2023-07-28T08:53:15;20.80;79.10
37322;DHT22;23697;48.684;9.032;2023-07-28T08:55:48;21.00;76.80
37322;DHT22;23697;48.684;9.032;2023-07-28T08:58:29;21.50;79.70
37322;DHT22;23697;48.684;9.032;2023-07-28T09:00:56;21.60;77.80
37322;DHT22;23697;48.684;9.032;2023-07-28T09:03:28;21.60;75.90
37322;DHT22;23697;48.684;9.032;2023-07-28T09:06:36;21.60;75.30
37322;DHT22;23697;48.684;9.032;2023-07-28T09:09:14;21.60;75.50
37322;DHT22;23697;48.684;9.032;2023-07-28T09:11:48;21.40;72.50
37322;DHT22;23697;48.684;9.032;2023-07-28T09:17:22;21.20;75.90
37322;DHT22;23697;48.684;9.032;2023-07-28T09:20:02;20.90;73.70
37322;DHT22;23697;48.684;9.032;2023-07-28T09:22:32;20.90;75.60
37322;DHT22;23697;48.684;9.032;2023-07-28T09:25:23;20.80;75.50
37322;DHT22;23697;48.684;9.032;2023-07-28T09:27:55;20.70;76.10
37322;DHT22;23697;48.684;9.032;2023-07-28T09:30:46;20.70;75.90
37322;DHT22;23697;48.684;9.032;2023-07-28T09:36:35;20.60;76.20
37322;DHT22;23697;48.684;9.032;2023-07-28T09:39:12;20.60;74.40
37322;DHT22;23697;48.684;9.032;2023-07-28T09:44:40;20.80;74.10
37322;DHT22;23697;48.684;9.032;2023-07-28T09:47:07;21.00;74.30
37322;DHT22;23697;48.684;9.032;2023-07-28T09:49:59;21.10;72.70
37322;DHT22;23697;48.684;9.032;2023-07-28T09:52:31;21.10;71.50
37322;DHT22;23697;48.684;9.032;2023-07-28T09:55:06;21.00;72.20
37322;DHT22;23697;48.684;9.032;2023-07-28T09:57:37;20.90;71.20
37322;DHT22;23697;48.684;9.032;2023-07-28T10:00:23;20.90;73.50
37322;DHT22;23697;48.684;9.032;2023-07-28T10:02:58;20.90;70.80
37322;DHT22;23697;48.684;9.032;2023-07-28T10:05:28;20.90;70.00
37322;DHT22;23697;48.684;9.032;2023-07-28T10:08:14;20.90;70.50
37322;DHT22;23697;48.684;9.032;2023-07-28T10:10:42;20.80;69.50
37322;DHT22;23697;48.684;9.032;2023-07-28T10:13:18;21.00;71.50
37322;DHT22;23697;48.684;9.032;2023-07-28T10:15:55;21.10;70.30
37322;DHT22;23697;48.684;9.032;2023-07-28T10:18:21;21.20;68.90
37322;DHT22;23697;48.684;9.032;2023-07-28T10:20:48;21.10;68.80
37322;DHT22;23697;48.684;9.032;2023-07-28T10:23:20;21.10;69.80
37322;DHT22;23697;48.684;9.032;2023-07-28T10:37:37;22.10;69.40
37322;DHT22;23697;48.684;9.032;2023-07-28T10:40:29;22.30;69.90
37322;DHT22;23697;48.684;9.032;2023-07-28T10:42:57;22.50;68.60
37322;DHT22;23697;48.684;9.032;2023-07-28T10:45:24;22.40;66.00
37322;DHT22;23697;48.684;9.032;2023-07-28T10:47:52;22.50;68.10
37322;DHT22;23697;48.684;9.032;2023-07-28T10:50:20;22.60;68.00
37322;DHT22;23697;48.684;9.032;2023-07-28T10:52:49;22.60;67.50
37322;DHT22;23697;48.684;9.032;2023-07-28T10:55:16;22.50;68.40
37322;DHT22;23697;48.684;9.032;2023-07-28T10:57:44;22.50;68.60
37322;DHT22;23697;48.684;9.032;2023-07-28T11:00:14;22.60;68.00
37322;DHT22;23697;48.684;9.032;2023-07-28T11:02:41;22.60;68.90
37322;DHT22;23697;48.684;9.032;2023-07-28T11:05:09;22.60;67.10
37322;DHT22;23697;48.684;9.032;2023-07-28T11:07:37;22.70;67.10
37322;DHT22;23697;48.684;9.032;2023-07-28T11:10:06;22.60;65.60
37322;DHT22;23697;48.684;9.032;2023-07-28T11:12:33;22.70;68.10
37322;DHT22;23697;48.684;9.032;2023-07-28T11:14:59;22.90;66.30
37322;DHT22;23697;48.684;9.032;2023-07-28T11:17:26;23.00;66.80
37322;DHT22;23697;48.684;9.032;2023-07-28T11:20:14;23.00;66.50
37322;DHT22;23697;48.684;9.032;2023-07-28T11:22:42;22.90;66.40
37322;DHT22;23697;48.684;9.032;2023-07-28T11:25:10;22.90;65.70
37322;DHT22;23697;48.684;9.032;2023-07-28T11:27:37;22.90;67.20
37322;DHT22;23697;48.684;9.032;2023-07-28T11:30:11;23.00;64.70
37322;DHT22;23697;48.684;9.032;2023-07-28T11:32:42;22.90;63.80
37322;DHT22;23697;48.684;9.032;2023-07-28T11:35:09;22.80;63.40
37322;DHT22;23697;48.684;9.032;2023-07-28T11:37:37;22.70;64.70
37322;DHT22;23697;48.684;9.032;2023-07-28T11:40:08;22.60;64.90
37322;DHT22;23697;48.684;9.032;2023-07-28T11:42:38;22.40;64.30
37322;DHT22;23697;48.684;9.032;2023-07-28T11:45:05;22.40;66.10
37322;DHT22;23697;48.684;9.032;2023-07-28T11:47:34;22.20;66.80
37322;DHT22;23697;48.684;9.032;2023-07-28T11:50:04;22.00;69.90
37322;DHT22;23697;48.684;9.032;2023-07-28T11:52:32;21.70;72.60
37322;DHT22;23697;48.684;9.032;2023-07-28T11:55:04;21.40;75.20
37322;DHT22;23697;48.684;9.032;2023-07-28T11:57:32;21.10;76.40
37322;DHT22;23697;48.684;9.032;2023-07-28T12:00:00;20.90;76.20
37322;DHT22;23697;48.684;9.032;2023-07-28T12:02:29;20.90;76.90
37322;DHT22;23697;48.684;9.032;2023-07-28T12:04:57;21.00;78.00
37322;DHT22;23697;48.684;9.032;2023-07-28T12:07:27;21.10;79.20
37322;DHT22;23697;48.684;9.032;2023-07-28T12:10:00;21.10;78.50
37322;DHT22;23697;48.684;9.032;2023-07-28T12:12:38;21.10;79.20
37322;DHT22;23697;48.684;9.032;2023-07-28T12:15:19;21.40;78.30
37322;DHT22;23697;48.684;9.032;2023-07-28T12:17:59;21.60;77.90
37322;DHT22;23697;48.684;9.032;2023-07-28T12:20:26;21.60;75.60
37322;DHT22;23697;48.684;9.032;2023-07-28T12:22:53;21.70;76.30
37322;DHT22;23697;48.684;9.032;2023-07-28T12:25:20;21.70;75.50
37322;DHT22;23697;48.684;9.032;2023-07-28T12:27:50;21.90;76.50
37322;DHT22;23697;48.684;9.032;2023-07-28T12:30:18;22.10;76.20
37322;DHT22;23697;48.684;9.032;2023-07-28T12:32:49;22.20;75.80
37322;DHT22;23697;48.684;9.032;2023-07-28T12:35:16;22.40;75.00
37322;DHT22;23697;48.684;9.032;2023-07-28T12:37:44;22.50;73.10
37322;DHT22;23697;48.684;9.032;2023-07-28T12:40:12;22.60;73.30
37322;DHT22;23697;48.684;9.032;2023-07-28T12:42:39;22.60;73.40
37322;DHT22;23697;48.684;9.032;2023-07-28T12:45:06;22.60;73.00
37322;DHT22;23697;48.684;9.032;2023-07-28T12:47:35;22.60;73.30
37322;DHT22;23697;48.684;9.032;2023-07-28T12:50:02;22.50;73.50
37322;DHT22;23697;48.684;9.032;2023-07-28T12:52:32;22.30;72.50
37322;DHT22;23697;48.684;9.032;2023-07-28T12:55:00;22.30;73.00
37322;DHT22;23697;48.684;9.032;2023-07-28T12:57:27;22.20;74.50
37322;DHT22;23697;48.684;9.032;2023-07-28T12:59:54;22.10;73.90
37322;DHT22;23697;48.684;9.032;2023-07-28T13:02:20;22.10;74.80
37322;DHT22;23697;48.684;9.032;2023-07-28T13:04:48;22.10;74.30
37322;DHT22;23697;48.684;9.032;2023-07-28T13:07:15;22.00;76.00
37322;DHT22;23697;48.684;9.032;2023-07-28T13:09:45;21.90;75.20
37322;DHT22;23697;48.684;9.032;2023-07-28T13:12:12;21.80;76.10
37322;DHT22;23697;48.684;9.032;2023-07-28T13:14:39;21.70;77.50
37322;DHT22;23697;48.684;9.032;2023-07-28T13:17:10;21.60;77.30
37322;DHT22;23697;48.684;9.032;2023-07-28T13:19:39;21.40;77.40
37322;DHT22;23697;48.684;9.032;2023-07-28T13:22:09;21.40;79.30
37322;DHT22;23697;48.684;9.032;2023-07-28T13:24:35;21.20;79.80
37322;DHT22;23697;48.684;9.032;2023-07-28T13:27:04;21.10;79.80
37322;DHT22;23697;48.684;9.032;2023-07-28T13:29:30;21.00;80.70
37322;DHT22;23697;48.684;9.032;2023-07-28T13:31:57;20.90;80.90
37322;DHT22;23697;48.684;9.032;2023-07-28T13:34:25;20.70;81.20
37322;DHT22;23697;48.684;9.032;2023-07-28T13:36:51;20.60;82.40
37322;DHT22;23697;48.684;9.032;2023-07-28T13:39:19;20.60;83.20
37322;DHT22;23697;48.684;9.032;2023-07-28T13:41:46;20.50;83.60
37322;DHT22;23697;48.684;9.032;2023-07-28T13:44:13;20.40;84.20
37322;DHT22;23697;48.684;9.032;2023-07-28T13:46:39;20.20;84.60
37322;DHT22;23697;48.684;9.032;2023-07-28T20:01:10;17.60;89.60
37322;DHT22;23697;48.684;9.032;2023-07-28T20:05:58;17.50;89.70
37322;DHT22;23697;48.684;9.032;2023-07-28T20:08:18;17.40;89.80
37322;DHT22;23697;48.684;9.032;2023-07-28T20:10:21;17.40;89.90
37322;DHT22;23697;48.684;9.032;2023-07-28T20:28:40;17.40;90.10
37322;DHT22;23697;48.684;9.032;2023-07-28T20:31:36;17.30;90.10
37322;DHT22;23697;48.684;9.032;2023-07-28T20:34:41;17.40;90.20
37322;DHT22;23697;48.684;9.032;2023-07-28T20:37:25;17.40;90.20
37322;DHT22;23697;48.684;9.032;2023-07-28T20:43:29;17.30;90.20
37322;DHT22;23697;48.684;9.032;2023-07-28T21:13:08;16.90;90.40
37322;DHT22;23697;48.684;9.032;2023-07-28T22:55:11;16.60;91.00
37322;DHT22;23697;48.684;9.032;2023-07-28T23:35:51;16.30;91.10
37322;DHT22;23697;48.684;9.032;2023-07-28T23:38:39;16.40;91.20
37322;DHT22;23697;48.684;9.032;2023-07-28T23:42:25;16.40;91.30
37322;DHT22;23697;48.684;9.032;2023-07-28T23:44:30;16.40;91.30
37322;DHT22;23697;48.684;9.032;2023-07-28T23:59:17;16.60;91.40
